createdAt,value
2019-03-04T00:00:40.737Z,-1.3
2019-03-04T00:01:31.112Z,-1.3
2019-03-04T00:02:21.147Z,-1.3
2019-03-04T00:03:11.490Z,-1.3
2019-03-04T00:04:01.531Z,-1.3
2019-03-04T00:04:51.040Z,-1.3
2019-03-04T00:05:41.656Z,-1.3
2019-03-04T00:06:31.712Z,-1.3
2019-03-04T00:07:21.228Z,-1.3
2019-03-04T00:08:11.549Z,-1.3
2019-03-04T00:09:01.887Z,-1.3
2019-03-04T00:09:51.969Z,-1.3
2019-03-04T00:10:41.264Z,-1.4
2019-03-04T00:11:31.321Z,-1.3
2019-03-04T00:12:21.633Z,-1.4
2019-03-04T00:13:11.469Z,-1.4
2019-03-04T00:14:01.491Z,-1.4
2019-03-04T00:14:52.030Z,-1.4
2019-03-04T00:15:41.814Z,-1.4
2019-03-04T00:16:32.150Z,-1.4
2019-03-04T00:17:22.196Z,-1.4
2019-03-04T00:18:12.538Z,-1.4
2019-03-04T00:19:02.322Z,-1.4
2019-03-04T00:19:52.658Z,-1.4
2019-03-04T00:20:42.446Z,-1.4
2019-03-04T00:21:32.496Z,-1.4
2019-03-04T00:22:22.833Z,-1.4
2019-03-04T00:23:12.661Z,-1.4
2019-03-04T00:24:02.693Z,-1.4
2019-03-04T00:24:52.738Z,-1.4
2019-03-04T00:25:43.058Z,-1.4
2019-03-04T00:26:33.132Z,-1.4
2019-03-04T00:27:23.230Z,-1.4
2019-03-04T00:28:13.241Z,-1.5
2019-03-04T00:29:03.028Z,-1.4
2019-03-04T00:29:53.366Z,-1.5
2019-03-04T00:30:43.133Z,-1.5
2019-03-04T00:31:33.210Z,-1.5
2019-03-04T00:32:23.533Z,-1.5
2019-03-04T00:33:12.778Z,-1.5
2019-03-04T00:34:03.105Z,-1.5
2019-03-04T00:34:53.168Z,-1.5
2019-03-04T00:35:43.492Z,-1.5
2019-03-04T00:36:33.270Z,-1.5
2019-03-04T00:37:23.602Z,-1.6
2019-03-04T00:38:13.664Z,-1.6
2019-03-04T00:39:03.727Z,-1.6
2019-03-04T00:39:53.785Z,-1.6
2019-03-04T00:40:44.117Z,-1.6
2019-03-04T00:41:34.221Z,-1.6
2019-03-04T00:42:24.236Z,-1.6
2019-03-04T00:43:14.302Z,-1.6
2019-03-04T00:44:03.802Z,-1.6
2019-03-04T00:44:53.884Z,-1.6
2019-03-04T00:45:44.195Z,-1.6
2019-03-04T00:46:34.263Z,-1.6
2019-03-04T00:47:24.049Z,-1.7
2019-03-04T00:48:14.673Z,-1.7
2019-03-04T00:49:04.162Z,-1.7
2019-03-04T00:49:54.497Z,-1.7
2019-03-04T00:50:44.827Z,-1.7
2019-03-04T00:51:34.894Z,-1.8
2019-03-04T00:52:24.678Z,-1.8
2019-03-04T00:53:15.004Z,-1.7
2019-03-04T00:54:05.064Z,-1.8
2019-03-04T00:54:55.124Z,-1.8
2019-03-04T00:55:45.173Z,-1.8
2019-03-04T00:56:34.971Z,-1.8
2019-03-04T00:57:25.032Z,-1.8
2019-03-04T00:58:15.080Z,-1.8
2019-03-04T00:59:05.401Z,-1.8
2019-03-04T00:59:54.916Z,-1.8
2019-03-04T01:00:45.526Z,-1.8
2019-03-04T01:01:34.762Z,-1.8
2019-03-04T01:02:25.088Z,-1.8
2019-03-04T01:03:15.489Z,-1.8
2019-03-04T01:04:05.491Z,-1.8
2019-03-04T01:04:55.553Z,-1.8
2019-03-04T01:05:45.878Z,-1.8
2019-03-04T01:06:35.942Z,-1.8
2019-03-04T01:07:25.728Z,-1.8
2019-03-04T01:08:15.781Z,-1.8
2019-03-04T01:09:05.833Z,-1.8
2019-03-04T01:09:55.628Z,-1.9
2019-03-04T01:10:46.282Z,-1.9
2019-03-04T01:11:36.298Z,-1.9
2019-03-04T01:12:26.343Z,-1.9
2019-03-04T01:13:16.413Z,-1.9
2019-03-04T01:14:05.637Z,-1.9
2019-03-04T01:14:56.528Z,-1.9
2019-03-04T01:15:46.370Z,-1.9
2019-03-04T01:16:36.629Z,-1.9
2019-03-04T01:17:26.420Z,-1.9
2019-03-04T01:18:16.765Z,-1.9
2019-03-04T01:19:06.820Z,-1.9
2019-03-04T01:19:56.595Z,-1.9
2019-03-04T01:20:46.923Z,-1.9
2019-03-04T01:21:36.730Z,-1.9
2019-03-04T01:22:27.049Z,-1.9
2019-03-04T01:23:16.827Z,-1.9
2019-03-04T01:24:06.637Z,-1.9
2019-03-04T01:24:56.693Z,-2
2019-03-04T01:25:47.292Z,-2
2019-03-04T01:26:37.347Z,-2
2019-03-04T01:27:27.401Z,-2
2019-03-04T01:28:16.919Z,-2
2019-03-04T01:29:07.262Z,-2.1
2019-03-04T01:29:57.637Z,-2
2019-03-04T01:30:47.647Z,-2.1
2019-03-04T01:31:37.724Z,-2.1
2019-03-04T01:32:27.753Z,-2.1
2019-03-04T01:33:17.252Z,-2.1
2019-03-04T01:34:07.869Z,-2.1
2019-03-04T01:34:57.659Z,-2.1
2019-03-04T01:35:47.981Z,-2.1
2019-03-04T01:36:38.051Z,-2.1
2019-03-04T01:37:27.831Z,-2.1
2019-03-04T01:38:17.906Z,-2.1
2019-03-04T01:39:07.946Z,-2.1
2019-03-04T01:39:58.286Z,-2.1
2019-03-04T01:40:48.349Z,-2.2
2019-03-04T01:41:38.396Z,-2.2
2019-03-04T01:42:28.475Z,-2.2
2019-03-04T01:43:18.277Z,-2.2
2019-03-04T01:44:08.589Z,-2.2
2019-03-04T01:44:58.359Z,-2.2
2019-03-04T01:45:48.428Z,-2.2
2019-03-04T01:46:38.746Z,-2.2
2019-03-04T01:47:28.537Z,-2.2
2019-03-04T01:48:18.866Z,-2.2
2019-03-04T01:49:08.379Z,-2.3
2019-03-04T01:49:58.448Z,-2.3
2019-03-04T01:50:48.768Z,-2.3
2019-03-04T01:51:39.127Z,-2.2
2019-03-04T01:52:28.970Z,-2.2
2019-03-04T01:53:19.455Z,-2.2
2019-03-04T01:54:08.733Z,-2.2
2019-03-04T01:54:59.341Z,-2.2
2019-03-04T01:55:49.385Z,-2.2
2019-03-04T01:56:39.218Z,-2.2
2019-03-04T01:57:29.523Z,-2.3
2019-03-04T01:58:19.307Z,-2.3
2019-03-04T01:59:09.630Z,-2.2
2019-03-04T01:59:59.147Z,-2.3
2019-03-04T02:00:49.747Z,-2.2
2019-03-04T02:01:39.270Z,-2.3
2019-03-04T02:02:29.870Z,-2.3
2019-03-04T02:03:19.685Z,-2.3
2019-03-04T02:04:09.145Z,-2.3
2019-03-04T02:05:00.035Z,-2.3
2019-03-04T02:05:49.825Z,-2.2
2019-03-04T02:06:39.607Z,-2.3
2019-03-04T02:07:30.225Z,-2.3
2019-03-04T02:08:20.015Z,-2.3
2019-03-04T02:09:10.352Z,-2.3
2019-03-04T02:10:00.381Z,-2.3
2019-03-04T02:10:50.443Z,-2.3
2019-03-04T02:11:40.513Z,-2.3
2019-03-04T02:12:30.572Z,-2.3
2019-03-04T02:13:20.070Z,-2.3
2019-03-04T02:14:10.741Z,-2.3
2019-03-04T02:15:00.844Z,-2.3
2019-03-04T02:15:50.542Z,-2.3
2019-03-04T02:16:40.589Z,-2.3
2019-03-04T02:17:30.107Z,-2.3
2019-03-04T02:18:20.707Z,-2.3
2019-03-04T02:19:10.789Z,-2.3
2019-03-04T02:20:00.724Z,-2.3
2019-03-04T02:20:50.894Z,-2.3
2019-03-04T02:21:40.934Z,-2.3
2019-03-04T02:22:31.006Z,-2.4
2019-03-04T02:23:20.789Z,-2.4
2019-03-04T02:24:10.901Z,-2.4
2019-03-04T02:25:01.441Z,-2.4
2019-03-04T02:25:51.237Z,-2.4
2019-03-04T02:26:41.279Z,-2.4
2019-03-04T02:27:31.386Z,-2.4
2019-03-04T02:28:21.406Z,-2.4
2019-03-04T02:29:11.467Z,-2.4
2019-03-04T02:30:01.868Z,-2.4
2019-03-04T02:30:51.879Z,-2.4
2019-03-04T02:31:41.941Z,-2.5
2019-03-04T02:32:31.468Z,-2.4
2019-03-04T02:33:21.852Z,-2.5
2019-03-04T02:34:12.131Z,-2.5
2019-03-04T02:35:01.807Z,-2.4
2019-03-04T02:35:51.424Z,-2.5
2019-03-04T02:36:42.269Z,-2.4
2019-03-04T02:37:32.369Z,-2.4
2019-03-04T02:38:22.395Z,-2.4
2019-03-04T02:39:12.216Z,-2.4
2019-03-04T02:40:02.255Z,-2.4
2019-03-04T02:40:52.569Z,-2.4
2019-03-04T02:41:42.645Z,-2.4
2019-03-04T02:42:32.680Z,-2.4
2019-03-04T02:43:22.781Z,-2.4
2019-03-04T02:44:12.819Z,-2.4
2019-03-04T02:45:02.890Z,-2.4
2019-03-04T02:45:52.968Z,-2.4
2019-03-04T02:46:43.035Z,-2.4
2019-03-04T02:47:33.060Z,-2.4
2019-03-04T02:48:23.124Z,-2.4
2019-03-04T02:49:13.231Z,-2.4
2019-03-04T02:50:02.948Z,-2.5
2019-03-04T02:50:53.288Z,-2.5
2019-03-04T02:51:42.802Z,-2.5
2019-03-04T02:52:33.451Z,-2.5
2019-03-04T02:53:23.272Z,-2.5
2019-03-04T02:54:12.988Z,-2.6
2019-03-04T02:55:03.594Z,-2.6
2019-03-04T02:55:53.381Z,-2.6
2019-03-04T02:56:43.691Z,-2.6
2019-03-04T02:57:33.753Z,-2.6
2019-03-04T02:58:23.810Z,-2.6
2019-03-04T02:59:13.893Z,-2.7
2019-03-04T03:00:03.709Z,-2.7
2019-03-04T03:00:54.030Z,-2.7
2019-03-04T03:01:43.511Z,-2.7
2019-03-04T03:02:33.575Z,-2.8
2019-03-04T03:03:23.635Z,-2.8
2019-03-04T03:04:13.963Z,-2.8
2019-03-04T06:05:45.877Z,1.8
2019-03-04T06:06:35.932Z,2.3
2019-03-04T06:07:26.001Z,2.7
2019-03-04T06:08:15.784Z,3.1
2019-03-04T06:09:05.840Z,3.6
2019-03-04T06:09:55.889Z,4
2019-03-04T06:10:45.734Z,4.5
2019-03-04T06:11:35.994Z,4.9
2019-03-04T06:12:26.055Z,5.5
2019-03-04T06:13:16.118Z,6
2019-03-04T06:14:06.193Z,6.5
2019-03-04T06:14:56.522Z,7
2019-03-04T06:15:46.016Z,7.6
2019-03-04T06:16:36.629Z,8.1
2019-03-04T06:17:26.411Z,8.7
2019-03-04T06:18:16.458Z,9.1
2019-03-04T06:19:06.523Z,9.6
2019-03-04T06:19:56.586Z,10.1
2019-03-04T06:20:46.919Z,10.5
2019-03-04T06:21:36.696Z,11
2019-03-04T06:22:26.751Z,11.4
2019-03-04T06:23:17.090Z,11.9
2019-03-04T06:24:07.154Z,12.3
2019-03-04T06:24:56.925Z,12.8
2019-03-04T06:25:47.341Z,13.3
2019-03-04T06:26:37.321Z,13.7
2019-03-04T06:27:27.123Z,14.2
2019-03-04T06:28:16.623Z,14.6
2019-03-04T06:29:06.949Z,15.1
2019-03-04T06:29:57.011Z,15.6
2019-03-04T06:30:49.559Z,16
2019-03-04T06:31:37.431Z,16.4
2019-03-04T06:32:27.750Z,16.9
2019-03-04T06:33:17.803Z,17.3
2019-03-04T06:34:07.843Z,17.8
2019-03-04T06:34:57.631Z,18.3
2019-03-04T06:35:47.688Z,18.8
2019-03-04T06:36:38.025Z,19.3
2019-03-04T06:37:28.100Z,19.8
2019-03-04T06:38:18.165Z,20.3
2019-03-04T06:39:07.650Z,20.8
2019-03-04T06:39:57.993Z,21.4
2019-03-04T06:40:48.316Z,21.9
2019-03-04T06:41:38.102Z,22.4
2019-03-04T06:42:28.167Z,23
2019-03-04T06:43:18.485Z,23.6
2019-03-04T06:44:08.554Z,24.1
2019-03-04T06:44:58.597Z,24.7
2019-03-04T06:45:48.392Z,25.3
2019-03-04T06:46:38.716Z,25.9
2019-03-04T06:47:28.785Z,26.4
2019-03-04T06:48:18.295Z,27.1
2019-03-04T06:49:08.614Z,27.6
2019-03-04T06:49:58.942Z,28.3
2019-03-04T06:50:49.035Z,28.8
2019-03-04T06:51:38.532Z,29.4
2019-03-04T06:52:29.125Z,29.9
2019-03-04T06:53:19.250Z,30.6
2019-03-04T06:54:09.237Z,31.1
2019-03-04T06:54:58.757Z,31.7
2019-03-04T06:55:49.086Z,32.3
2019-03-04T06:56:39.419Z,32.9
2019-03-04T06:57:30.688Z,33.4
2019-03-04T06:58:19.582Z,33.9
2019-03-04T06:59:09.042Z,34.4
2019-03-04T06:59:59.367Z,35
2019-03-04T07:00:49.768Z,35.5
2019-03-04T07:01:39.824Z,36.1
2019-03-04T07:02:29.824Z,36.6
2019-03-04T07:03:19.619Z,37.1
2019-03-04T07:05:45.556Z,38.4
2019-03-04T07:06:35.614Z,39.1
2019-03-04T07:07:25.948Z,39.6
2019-03-04T07:08:16.004Z,40.1
2019-03-04T07:09:05.793Z,40.6
2019-03-04T07:09:55.851Z,41.1
2019-03-04T07:10:45.904Z,41.6
2019-03-04T07:11:36.241Z,42.1
2019-03-04T07:12:26.019Z,42.6
2019-03-04T07:13:16.391Z,43.1
2019-03-04T07:14:06.150Z,43.5
2019-03-04T07:14:55.902Z,44
2019-03-04T07:15:46.263Z,44.4
2019-03-04T07:16:36.320Z,44.9
2019-03-04T07:17:26.365Z,45.3
2019-03-04T07:18:16.466Z,45.8
2019-03-04T07:19:06.483Z,46.2
2019-03-04T07:19:56.802Z,46.6
2019-03-04T07:20:46.598Z,47.1
2019-03-04T07:21:36.935Z,47.4
2019-03-04T07:22:26.713Z,47.9
2019-03-04T07:23:17.045Z,48.3
2019-03-04T07:24:06.910Z,48.7
2019-03-04T07:24:56.610Z,49.1
2019-03-04T07:25:47.210Z,49.4
2019-03-04T07:26:36.768Z,49.8
2019-03-04T07:27:26.783Z,50.1
2019-03-04T07:28:17.395Z,50.4
2019-03-04T07:29:07.448Z,50.9
2019-03-04T07:29:56.954Z,51.3
2019-03-04T07:30:47.286Z,51.6
2019-03-04T07:31:37.339Z,52.1
2019-03-04T07:32:27.685Z,52.5
2019-03-04T07:33:17.552Z,52.9
2019-03-04T07:34:07.252Z,53.4
2019-03-04T07:34:57.877Z,53.8
2019-03-04T07:35:47.907Z,54.4
2019-03-04T07:36:37.689Z,56.3
2019-03-04T07:37:28.028Z,55.9
2019-03-04T07:38:17.802Z,54.1
2019-03-04T07:39:08.141Z,51.6
2019-03-04T07:39:58.209Z,48.2
2019-03-04T07:40:47.989Z,46
2019-03-04T07:41:38.045Z,44.7
2019-03-04T07:42:27.829Z,43.8
2019-03-04T07:43:18.164Z,43.3
2019-03-04T07:44:08.227Z,43.1
2019-03-04T07:44:58.269Z,43.1
2019-03-04T07:45:48.611Z,43.3
2019-03-04T07:46:38.668Z,43.5
2019-03-04T07:47:28.449Z,43.9
2019-03-04T07:48:17.988Z,44.3
2019-03-04T07:49:08.571Z,44.8
2019-03-04T07:49:58.355Z,45.4
2019-03-04T07:50:48.696Z,46.1
2019-03-04T07:51:39.034Z,46.8
2019-03-04T07:52:28.539Z,47.6
2019-03-04T07:53:20.846Z,48.4
2019-03-04T07:54:08.914Z,49.1
2019-03-04T07:54:59.262Z,49.9
2019-03-04T07:55:49.321Z,50.6
2019-03-04T07:56:39.370Z,51.4
2019-03-04T07:57:29.432Z,52.3
2019-03-04T07:58:19.218Z,53
2019-03-04T07:59:09.278Z,53.8
2019-03-04T07:59:59.598Z,54.4
2019-03-04T08:00:49.246Z,56.3
2019-03-04T08:01:39.721Z,56.9
2019-03-04T08:02:29.516Z,55.4
2019-03-04T08:03:19.300Z,53.5
2019-03-04T08:04:09.347Z,51.1
2019-03-04T08:04:59.945Z,48.9
2019-03-04T08:05:49.470Z,47.7
2019-03-04T08:06:39.536Z,47.1
2019-03-04T08:07:29.863Z,46.9
2019-03-04T08:08:20.190Z,46.8
2019-03-04T08:09:10.250Z,47.1
2019-03-04T08:09:59.265Z,47.6
2019-03-04T08:10:50.080Z,48.3
2019-03-04T08:11:40.150Z,49.1
2019-03-04T08:12:30.500Z,50.1
2019-03-04T08:13:20.000Z,51
2019-03-04T08:14:10.050Z,51.9
2019-03-04T08:15:00.778Z,52.8
2019-03-04T08:15:50.717Z,53.7
2019-03-04T08:16:40.790Z,54.6
2019-03-04T08:17:30.835Z,56.9
2019-03-04T08:18:20.342Z,57.4
2019-03-04T08:19:10.672Z,57.2
2019-03-04T08:20:01.284Z,56.4
2019-03-04T08:20:51.072Z,54.9
2019-03-04T08:21:40.626Z,53.1
2019-03-04T08:22:30.958Z,51.7
2019-03-04T08:23:20.976Z,51.6
2019-03-04T08:24:11.042Z,52.4
2019-03-04T08:25:01.364Z,53.3
2019-03-04T08:25:51.414Z,53.9
2019-03-04T08:26:41.225Z,54.1
2019-03-04T08:27:31.519Z,53.8
2019-03-04T08:28:21.613Z,53.5
2019-03-04T08:29:11.657Z,53.3
2019-03-04T08:30:01.762Z,53.3
2019-03-04T08:30:51.509Z,53.4
2019-03-04T08:31:41.551Z,53.8
2019-03-04T08:32:31.935Z,54
2019-03-04T08:33:21.539Z,54.2
2019-03-04T08:34:11.999Z,54.3
2019-03-04T08:35:01.755Z,54.2
2019-03-04T08:35:52.135Z,54.1
2019-03-04T08:36:42.181Z,54.2
2019-03-04T08:37:32.236Z,54.3
2019-03-04T08:38:22.019Z,54.4
2019-03-04T08:39:11.794Z,54.6
2019-03-04T08:40:02.429Z,54.8
2019-03-04T08:40:52.183Z,54.9
2019-03-04T08:41:42.257Z,55.1
2019-03-04T08:42:32.321Z,55.3
2019-03-04T08:43:22.084Z,55.6
2019-03-04T08:44:12.687Z,55.8
2019-03-04T08:45:02.810Z,56
2019-03-04T08:45:52.543Z,56.2
2019-03-04T08:46:42.891Z,56.4
2019-03-04T08:47:32.675Z,56.6
2019-03-04T08:48:23.030Z,56.8
2019-03-04T08:49:13.063Z,56.9
2019-03-04T08:50:03.136Z,57.1
2019-03-04T08:50:53.181Z,57.3
2019-03-04T08:51:42.965Z,57.4
2019-03-04T08:52:32.753Z,57.5
2019-03-04T08:53:23.057Z,57.6
2019-03-04T08:54:13.432Z,57.8
2019-03-04T08:55:03.228Z,58
2019-03-04T08:55:53.556Z,58.2
2019-03-04T08:56:43.030Z,58.4
2019-03-04T08:58:23.190Z,58.8
2019-03-04T08:59:13.753Z,58.9
2019-03-04T09:00:03.323Z,59
2019-03-04T09:00:53.862Z,59.1
2019-03-04T09:01:43.927Z,59.3
2019-03-04T09:02:33.508Z,59.4
2019-03-04T09:03:23.845Z,59.6
2019-03-04T09:04:13.347Z,59.8
2019-03-04T09:05:03.688Z,59.9
2019-03-04T09:05:53.180Z,60.1
2019-03-04T09:06:43.797Z,60.3
2019-03-04T09:07:34.345Z,60.4
2019-03-04T09:08:23.934Z,60.6
2019-03-04T09:09:14.177Z,60.7
2019-03-04T09:10:04.527Z,60.8
2019-03-04T09:10:53.815Z,60.9
2019-03-04T09:11:44.157Z,61
2019-03-04T09:12:36.253Z,61.1
2019-03-04T09:13:24.260Z,61.3
2019-03-04T09:14:14.050Z,61.3
2019-03-04T09:15:04.134Z,61.4
2019-03-04T09:15:54.182Z,61.6
2019-03-04T09:16:43.935Z,61.7
2019-03-04T09:17:34.549Z,61.8
2019-03-04T09:18:24.347Z,61.8
2019-03-04T09:19:14.671Z,61.9
2019-03-04T09:20:04.735Z,61.9
2019-03-04T09:20:54.511Z,62
2019-03-04T09:21:44.836Z,62
2019-03-04T09:22:34.923Z,62.1
2019-03-04T09:23:24.965Z,62.1
2019-03-04T09:24:15.021Z,62.3
2019-03-04T09:25:04.827Z,62.3
2019-03-04T09:25:55.152Z,62.4
2019-03-04T09:26:44.650Z,62.4
2019-03-04T09:27:35.469Z,62.5
2019-03-04T09:28:25.311Z,62.6
2019-03-04T09:29:15.103Z,62.6
2019-03-04T09:30:04.886Z,62.8
2019-03-04T09:30:55.493Z,62.9
2019-03-04T09:31:46.033Z,63
2019-03-04T09:32:35.568Z,63.1
2019-03-04T09:33:25.890Z,63.2
2019-03-04T09:34:15.938Z,63.4
2019-03-04T09:35:06.263Z,63.5
2019-03-04T09:35:56.336Z,63.6
2019-03-04T09:36:46.133Z,63.8
2019-03-04T09:37:36.160Z,63.9
2019-03-04T09:38:26.215Z,64.1
2019-03-04T09:39:16.275Z,64.3
2019-03-04T09:40:06.610Z,64.4
2019-03-04T09:40:56.400Z,64.5
2019-03-04T09:41:46.738Z,64.6
2019-03-04T09:42:36.783Z,64.7
2019-03-04T09:43:26.301Z,64.8
2019-03-04T09:44:16.351Z,64.9
2019-03-04T09:45:06.477Z,65
2019-03-04T09:45:56.745Z,65.1
2019-03-04T09:46:47.080Z,65.2
2019-03-04T09:47:37.144Z,65.3
2019-03-04T09:48:27.200Z,65.3
2019-03-04T09:49:17.267Z,65.4
2019-03-04T09:50:07.040Z,65.6
2019-03-04T09:50:57.373Z,65.7
2019-03-04T09:51:47.467Z,65.8
2019-03-04T09:52:37.501Z,65.8
2019-03-04T09:53:27.279Z,65.8
2019-03-04T09:54:17.332Z,65.6
2019-03-04T09:55:07.650Z,65.6
2019-03-04T09:55:57.717Z,65.5
2019-03-04T09:56:47.340Z,65.5
2019-03-04T09:57:37.865Z,65.6
2019-03-04T09:58:27.665Z,65.6
2019-03-04T09:59:17.677Z,65.7
2019-03-04T10:00:08.007Z,65.8
2019-03-04T10:00:58.064Z,65.9
2019-03-04T10:01:48.134Z,66.1
2019-03-04T10:02:38.239Z,66.1
2019-03-04T10:03:27.957Z,66.2
2019-03-04T10:04:18.302Z,66.3
2019-03-04T10:06:45.669Z,66.3
2019-03-04T10:07:35.731Z,66.2
2019-03-04T10:08:34.576Z,66.2
2019-03-04T10:09:15.868Z,66.2
2019-03-04T10:10:05.637Z,66.3
2019-03-04T10:10:55.427Z,66.3
2019-03-04T10:11:46.024Z,66.3
2019-03-04T10:12:36.079Z,66.4
2019-03-04T10:13:26.146Z,66.4
2019-03-04T10:14:15.930Z,66.4
2019-03-04T10:15:10.433Z,66.4
2019-03-04T10:15:55.778Z,66.4
2019-03-04T10:16:46.368Z,66.4
2019-03-04T10:17:36.166Z,66.4
2019-03-04T10:18:26.506Z,66.4
2019-03-04T10:19:16.272Z,66.4
2019-03-04T10:20:06.050Z,66.3
2019-03-04T10:20:56.385Z,66.2
2019-03-04T10:21:46.448Z,66.2
2019-03-04T10:22:36.510Z,66.1
2019-03-04T10:23:26.575Z,66.1
2019-03-04T10:24:16.353Z,66.2
2019-03-04T10:25:06.961Z,66.2
2019-03-04T10:25:56.463Z,66.3
2019-03-04T10:26:47.086Z,66.3
2019-03-04T10:27:36.570Z,66.2
2019-03-04T10:28:26.638Z,66.1
2019-03-04T10:29:16.973Z,65.9
2019-03-04T10:30:07.042Z,65.7
2019-03-04T10:30:57.403Z,65.5
2019-03-04T10:31:47.423Z,65.3
2019-03-04T10:32:37.475Z,65.1
2019-03-04T10:33:27.590Z,64.8
2019-03-04T10:34:17.600Z,64.6
2019-03-04T10:35:07.407Z,64.4
2019-03-04T10:35:57.162Z,64.1
2019-03-04T10:36:47.777Z,63.9
2019-03-04T10:37:37.827Z,63.8
2019-03-04T10:38:27.884Z,63.8
2019-03-04T10:39:23.887Z,63.8
2019-03-04T10:40:07.472Z,63.8
2019-03-04T10:40:59.745Z,63.8
2019-03-04T10:41:47.571Z,63.9
2019-03-04T10:42:37.927Z,63.9
2019-03-04T10:43:27.970Z,63.9
2019-03-04T10:44:18.305Z,63.9
2019-03-04T10:45:07.809Z,63.9
2019-03-04T10:45:58.421Z,64
2019-03-04T10:46:47.939Z,64.1
2019-03-04T10:47:38.524Z,64
2019-03-04T10:48:28.311Z,63.9
2019-03-04T10:49:18.654Z,63.9
2019-03-04T10:50:08.712Z,63.8
2019-03-04T10:50:58.769Z,63.9
2019-03-04T10:51:48.614Z,63.9
2019-03-04T10:52:38.880Z,64.1
2019-03-04T10:53:28.942Z,64.4
2019-03-04T10:54:18.999Z,64.6
2019-03-04T10:55:09.064Z,64.8
2019-03-04T10:55:58.853Z,64.9
2019-03-04T10:56:48.899Z,65.1
2019-03-04T10:57:39.231Z,65.2
2019-03-04T10:58:29.009Z,65.3
2019-03-04T10:59:19.338Z,65.4
2019-03-04T11:00:09.214Z,65.4
2019-03-04T11:00:59.229Z,65.4
2019-03-04T11:01:51.989Z,65.4
2019-03-04T11:02:39.023Z,65.3
2019-03-04T11:03:29.638Z,65.2
2019-03-04T11:04:19.153Z,65.1
2019-03-04T11:05:09.461Z,65
2019-03-04T11:05:59.536Z,64.9
2019-03-04T11:06:49.601Z,65
2019-03-04T11:07:39.733Z,65
2019-03-04T11:08:29.753Z,65
2019-03-04T11:09:19.565Z,65
2019-03-04T11:10:09.623Z,65
2019-03-04T11:10:59.909Z,65.1
2019-03-04T11:11:50.218Z,65.1
2019-03-04T11:12:40.267Z,65
2019-03-04T11:13:30.346Z,65
2019-03-04T11:14:20.133Z,64.9
2019-03-04T11:15:10.459Z,64.8
2019-03-04T11:16:00.235Z,64.6
2019-03-04T11:16:50.593Z,64.6
2019-03-04T11:17:40.072Z,64.5
2019-03-04T11:18:30.418Z,64.4
2019-03-04T11:19:20.752Z,64.4
2019-03-04T11:20:10.798Z,64.4
2019-03-04T11:21:00.598Z,64.3
2019-03-04T11:21:50.372Z,64.3
2019-03-04T11:22:40.701Z,64.2
2019-03-04T11:23:31.035Z,64.1
2019-03-04T11:24:21.102Z,64.1
2019-03-04T11:25:11.158Z,64.1
2019-03-04T11:26:01.220Z,64.1
2019-03-04T11:26:51.264Z,64.1
2019-03-04T11:27:41.057Z,64.1
2019-03-04T11:28:31.379Z,64.1
2019-03-04T11:29:21.447Z,64.1
2019-03-04T11:30:11.497Z,64.1
2019-03-04T11:31:01.291Z,64.1
2019-03-04T11:31:51.355Z,64.1
2019-03-04T11:32:41.717Z,63.9
2019-03-04T11:33:31.723Z,63.8
2019-03-04T11:34:21.307Z,63.8
2019-03-04T11:35:11.576Z,63.7
2019-03-04T11:36:01.919Z,63.6
2019-03-04T11:36:51.417Z,63.6
2019-03-04T11:37:42.037Z,63.6
2019-03-04T11:38:31.802Z,63.6
2019-03-04T11:39:22.147Z,63.5
2019-03-04T11:40:12.191Z,63.5
2019-03-04T11:41:02.254Z,63.4
2019-03-04T11:41:52.039Z,63.3
2019-03-04T11:42:42.378Z,63.1
2019-03-04T11:43:31.881Z,62.9
2019-03-04T11:44:22.495Z,62.9
2019-03-04T11:45:12.558Z,62.9
2019-03-04T11:46:02.618Z,62.9
2019-03-04T11:46:52.674Z,62.9
2019-03-04T11:47:42.726Z,63
2019-03-04T11:48:32.784Z,63
2019-03-04T11:49:22.611Z,63.1
2019-03-04T11:50:12.408Z,63.3
2019-03-04T11:51:02.709Z,63.3
2019-03-04T11:51:53.014Z,63.4
2019-03-04T11:52:43.071Z,63.4
2019-03-04T11:53:32.858Z,63.3
2019-03-04T11:54:23.191Z,63.3
2019-03-04T11:55:12.993Z,63.3
2019-03-04T11:56:03.325Z,63.3
2019-03-04T11:56:53.101Z,63.2
2019-03-04T11:57:43.153Z,63.2
2019-03-04T11:58:33.475Z,63.3
2019-03-04T11:59:23.610Z,63.3
2019-03-04T12:00:13.059Z,63.4
2019-03-04T12:01:03.674Z,63.6
2019-03-04T12:01:53.450Z,63.6
2019-03-04T12:02:43.779Z,63.6
2019-03-04T12:03:33.846Z,63.6
2019-03-04T12:04:23.627Z,63.6
2019-03-04T12:06:45.333Z,63.6
2019-03-04T12:07:35.650Z,63.7
2019-03-04T12:08:25.703Z,63.8
2019-03-04T12:09:15.495Z,63.7
2019-03-04T12:10:05.852Z,63.7
2019-03-04T12:10:55.865Z,63.6
2019-03-04T12:11:45.914Z,63.5
2019-03-04T12:12:35.719Z,63.4
2019-03-04T12:13:26.042Z,63.3
2019-03-04T12:14:16.092Z,63.2
2019-03-04T12:15:05.619Z,63.1
2019-03-04T12:15:55.932Z,63.1
2019-03-04T12:16:46.006Z,63
2019-03-04T12:17:35.785Z,63
2019-03-04T12:18:26.389Z,63
2019-03-04T12:19:16.491Z,63
2019-03-04T12:20:06.559Z,63
2019-03-04T12:20:56.562Z,63.1
2019-03-04T12:21:46.351Z,63
2019-03-04T12:22:36.404Z,62.9
2019-03-04T12:23:26.760Z,62.9
2019-03-04T12:24:16.596Z,62.7
2019-03-04T12:25:06.302Z,62.6
2019-03-04T12:25:56.371Z,62.4
2019-03-04T12:26:46.694Z,62.2
2019-03-04T12:27:36.814Z,62
2019-03-04T12:28:27.092Z,61.9
2019-03-04T12:29:17.157Z,61.8
2019-03-04T12:30:06.396Z,61.7
2019-03-04T12:30:57.271Z,61.7
2019-03-04T12:31:47.062Z,61.8
2019-03-04T12:32:37.379Z,61.8
2019-03-04T12:33:27.438Z,61.8
2019-03-04T12:34:26.683Z,61.7
2019-03-04T12:35:07.268Z,61.6
2019-03-04T12:35:57.616Z,61.4
2019-03-04T12:36:47.675Z,61.3
2019-03-04T12:37:37.752Z,61.2
2019-03-04T12:38:27.793Z,60.9
2019-03-04T12:39:17.586Z,60.6
2019-03-04T12:40:07.960Z,59.9
2019-03-04T12:40:57.978Z,59.3
2019-03-04T12:41:50.226Z,59.1
2019-03-04T12:42:38.111Z,59.1
2019-03-04T12:43:28.168Z,59.4
2019-03-04T12:44:17.929Z,59.8
2019-03-04T12:45:07.988Z,60.2
2019-03-04T12:45:57.763Z,60.7
2019-03-04T12:46:48.095Z,61.2
2019-03-04T12:47:38.163Z,61.6
2019-03-04T12:48:28.495Z,62.1
2019-03-04T12:49:18.548Z,62.4
2019-03-04T12:50:08.393Z,62.7
2019-03-04T12:50:58.400Z,62.9
2019-03-04T12:51:48.175Z,63.3
2019-03-04T12:52:38.512Z,64
2019-03-04T12:53:38.885Z,65.4
2019-03-04T12:54:18.909Z,65.1
2019-03-04T12:55:08.690Z,64.6
2019-03-04T12:55:58.757Z,63
2019-03-04T12:56:49.085Z,60.9
2019-03-04T12:57:39.145Z,59.3
2019-03-04T12:58:28.657Z,58.2
2019-03-04T13:00:59.377Z,57.9
2019-03-04T13:01:49.438Z,57.9
2019-03-04T13:02:39.494Z,58
2019-03-04T13:03:29.277Z,58.1
2019-03-04T13:04:19.619Z,58.3
2019-03-04T13:05:09.670Z,58.4
2019-03-04T13:05:59.729Z,58.5
2019-03-04T13:06:49.781Z,58.6
2019-03-04T13:07:39.846Z,58.8
2019-03-04T13:08:29.912Z,59.1
2019-03-04T13:09:19.974Z,59.3
2019-03-04T13:10:09.480Z,59.4
2019-03-04T13:11:00.096Z,59.4
2019-03-04T13:11:49.893Z,59.6
2019-03-04T13:12:40.189Z,59.7
2019-03-04T13:13:29.991Z,59.8
2019-03-04T13:14:20.037Z,59.9
2019-03-04T13:15:09.831Z,60.1
2019-03-04T13:15:59.891Z,60.4
2019-03-04T13:16:50.493Z,60.6
2019-03-04T13:17:40.571Z,60.8
2019-03-04T13:18:30.613Z,61
2019-03-04T13:19:20.382Z,61.1
2019-03-04T13:20:10.736Z,61.1
2019-03-04T13:21:00.784Z,61.1
2019-03-04T13:21:50.606Z,61.1
2019-03-04T13:22:40.686Z,61
2019-03-04T13:23:30.683Z,60.9
2019-03-04T13:24:21.071Z,60.8
2019-03-04T13:25:10.840Z,60.7
2019-03-04T13:26:01.143Z,60.6
2019-03-04T13:26:50.913Z,60.5
2019-03-04T13:27:40.965Z,60.4
2019-03-04T13:28:31.318Z,60.4
2019-03-04T13:29:21.378Z,60.3
2019-03-04T13:30:11.185Z,60.1
2019-03-04T13:31:01.505Z,60
2019-03-04T13:31:51.073Z,59.8
2019-03-04T13:32:41.622Z,59.7
2019-03-04T13:33:31.665Z,59.6
2019-03-04T13:34:20.737Z,59.4
2019-03-04T13:35:11.788Z,59.3
2019-03-04T13:36:01.300Z,59.1
2019-03-04T13:36:51.430Z,59.1
2019-03-04T13:37:41.490Z,58.9
2019-03-04T13:38:31.535Z,58.9
2019-03-04T13:39:21.615Z,58.8
2019-03-04T13:40:11.655Z,58.8
2019-03-04T13:41:01.440Z,58.6
2019-03-04T13:41:51.784Z,58.4
2019-03-04T13:42:41.872Z,58.3
2019-03-04T13:43:31.357Z,58.1
2019-03-04T13:44:21.960Z,57.9
2019-03-04T13:46:01.797Z,57.7
2019-03-04T13:46:52.160Z,57.6
2019-03-04T13:47:42.677Z,57.4
2019-03-04T13:48:32.253Z,57.3
2019-03-04T13:49:22.039Z,57.1
2019-03-04T13:50:12.849Z,56.9
2019-03-04T13:51:02.935Z,56.6
2019-03-04T13:51:52.227Z,56.4
2019-03-04T13:52:43.027Z,56.1
2019-03-04T13:53:32.819Z,55.9
2019-03-04T13:54:23.139Z,55.7
2019-03-04T13:55:13.212Z,55.4
2019-03-04T13:56:02.257Z,55.1
2019-03-04T13:56:53.342Z,54.9
2019-03-04T13:57:42.839Z,54.7
2019-03-04T13:58:33.439Z,54.5
2019-03-04T13:59:23.517Z,54.3
2019-03-04T14:00:13.291Z,54.1
2019-03-04T14:01:03.620Z,53.9
2019-03-04T14:01:53.709Z,53.7
2019-03-04T14:02:43.469Z,53.5
2019-03-04T14:03:33.256Z,53.3
2019-03-04T14:04:23.874Z,53.1
2019-03-04T14:05:13.971Z,52.9
2019-03-04T14:07:46.151Z,52.2
2019-03-04T16:07:45.382Z,18.9
2019-03-04T16:08:35.167Z,18.8
2019-03-04T16:09:25.032Z,18.6
2019-03-04T16:10:14.547Z,18.5
2019-03-04T16:11:05.344Z,18.4
2019-03-04T16:11:55.394Z,18.3
2019-03-04T16:12:45.724Z,18.1
2019-03-04T16:13:35.037Z,18
2019-03-04T16:14:25.599Z,17.8
2019-03-04T16:15:15.432Z,17.7
2019-03-04T16:16:05.489Z,17.6
2019-03-04T16:16:56.034Z,17.4
2019-03-04T16:17:45.064Z,17.4
2019-03-04T16:18:36.136Z,17.3
2019-03-04T16:19:25.934Z,17.1